Terminal Aerodrome Forecast
Issued by NWS

Home | Current Version | Previous Version | Graphics & Text | Print | Product List | Glossary On
Versions: 1 2 3 4 5 6 7 8 9 10 11 12 13 14 15 16 17 18 19 20 21 22 23 24
716
FTUS43 KBIS 270834 AAB
TAFMOT
TAF AMD
KMOT 270834Z 2709/2806 VRB04KT P6SM VCTS FEW060CB BKN090
      TEMPO 2709/2711 VRB30G45KT 2SM TSRA OVC035CB
     FM271100 31005KT P6SM VCTS OVC200CB
     FM271400 01009KT P6SM SCT250=

USA.gov is the U.S. government's official web portal to all federal, state and local government web resources and services.